Time;durP1;ratioP1;P1;durP2;ratioP2;P2;SDS_P1;SDS_P2;PMS_P1;PMS_P2;Temp;Humidity;BMP_temperature;BMP_pressure;BME280_temperature;BME280_humidity;BME280_pressure;Samples;Min_cycle;Max_cycle;Signal;HPM_P1;HPM_P2
2022/03/04 00:00:49;;;;;;;11.30;7.53;;;;;;;2.32;73.83;94173.13;5034668;28;20179;-59
2022/03/04 00:03:14;;;;;;;11.53;7.50;;;;;;;2.44;73.10;94163.13;5016443;28;20692;-61
2022/03/04 00:05:41;;;;;;;12.17;7.33;;;;;;;2.52;72.66;94168.47;5034499;28;20626;-61
2022/03/04 00:08:06;;;;;;;9.57;6.33;;;;;;;2.50;73.16;94164.47;5016949;28;20296;-58
2022/03/04 00:10:33;;;;;;;15.63;7.97;;;;;;;2.48;73.57;94172.06;5034857;28;20210;-58
2022/03/04 00:12:59;;;;;;;13.00;7.87;;;;;;;2.47;73.60;94162.94;5016925;28;20232;-59
2022/03/04 00:15:25;;;;;;;15.60;8.23;;;;;;;2.59;73.43;94170.63;5034606;28;20177;-62
2022/03/04 00:17:50;;;;;;;14.57;7.50;;;;;;;2.63;74.02;94162.81;5034691;28;20236;-58
2022/03/04 00:20:16;;;;;;;12.67;8.33;;;;;;;2.56;74.11;94162.38;5034439;28;20215;-61
2022/03/04 00:22:43;;;;;;;12.57;8.00;;;;;;;2.42;74.24;94144.06;5034931;28;20276;-59
2022/03/04 00:25:10;;;;;;;13.03;7.70;;;;;;;2.41;74.31;94142.44;5034076;28;20185;-59
2022/03/04 00:27:35;;;;;;;19.50;8.17;;;;;;;2.62;72.76;94175.44;5016394;28;20187;-58
2022/03/04 00:30:01;;;;;;;16.87;7.90;;;;;;;2.40;74.20;94150.88;5033724;28;20178;-58
2022/03/04 00:32:28;;;;;;;10.57;7.50;;;;;;;2.53;73.57;94167.59;5034283;28;20637;-60
2022/03/04 00:34:53;;;;;;;10.20;7.47;;;;;;;2.28;74.20;94146.63;5033694;28;20194;-59
2022/03/04 00:37:19;;;;;;;12.03;8.27;;;;;;;2.35;73.76;94162.88;5034326;28;20634;-58
2022/03/04 00:39:45;;;;;;;13.40;7.30;;;;;;;2.07;73.03;94160.44;5033705;28;20561;-61
2022/03/04 00:42:11;;;;;;;11.57;7.00;;;;;;;2.00;73.30;94157.50;5034121;28;20218;-60
2022/03/04 00:44:37;;;;;;;11.37;6.80;;;;;;;2.10;72.64;94162.78;5034051;28;20199;-58
2022/03/04 00:47:05;;;;;;;11.10;6.90;;;;;;;2.03;73.01;94159.81;5033617;28;20190;-57
2022/03/04 00:49:31;;;;;;;13.90;8.17;;;;;;;1.88;74.37;94130.66;5015419;28;20210;-59
2022/03/04 00:51:57;;;;;;;11.10;6.37;;;;;;;1.91;73.89;94132.19;5033948;28;20212;-58
2022/03/04 00:54:23;;;;;;;12.97;7.33;;;;;;;1.97;73.42;94159.38;5015775;28;20206;-63
2022/03/04 00:56:49;;;;;;;12.83;6.97;;;;;;;2.07;73.50;94152.91;5033004;28;20363;-64
2022/03/04 00:59:14;;;;;;;12.80;7.93;;;;;;;2.02;73.71;94144.88;5032927;28;20194;-63
2022/03/04 01:01:40;;;;;;;11.87;7.70;;;;;;;2.20;73.34;94156.31;5032939;28;20763;-62
2022/03/04 01:04:07;;;;;;;13.70;7.40;;;;;;;2.07;73.37;94143.72;5032660;28;20201;-64
2022/03/04 01:06:32;;;;;;;12.23;7.37;;;;;;;2.07;73.67;94141.19;5032879;28;20655;-63
2022/03/04 01:08:58;;;;;;;12.20;7.70;;;;;;;2.13;74.42;94124.97;5014899;28;20210;-63
2022/03/04 01:11:24;;;;;;;18.27;8.33;;;;;;;2.11;75.25;94116.75;5015028;28;20186;-63
2022/03/04 01:13:49;;;;;;;13.17;8.23;;;;;;;2.01;76.28;94110.69;5014844;28;20656;-63
2022/03/04 01:16:15;;;;;;;13.60;8.30;;;;;;;2.10;75.28;94125.97;5032487;28;20210;-62
2022/03/04 01:18:40;;;;;;;11.60;8.23;;;;;;;2.05;76.05;94094.56;5015142;28;20652;-63
2022/03/04 01:21:06;;;;;;;14.20;8.60;;;;;;;2.09;76.53;94090.97;5032526;28;20687;-62
2022/03/04 01:23:31;;;;;;;14.97;8.13;;;;;;;2.10;75.84;94100.13;5032404;28;20217;-63
2022/03/04 01:25:57;;;;;;;12.60;7.10;;;;;;;2.20;75.53;94113.69;5014797;28;20174;-63
2022/03/04 01:28:23;;;;;;;14.83;8.00;;;;;;;2.27;75.71;94110.72;5032839;28;20216;-63
2022/03/04 01:30:49;;;;;;;15.77;9.67;;;;;;;2.23;75.45;94106.78;5032386;28;20564;-63
2022/03/04 01:33:15;;;;;;;15.00;8.03;;;;;;;2.17;76.55;94087.09;5032825;28;20642;-63
2022/03/04 01:35:41;;;;;;;11.80;7.30;;;;;;;2.50;74.67;94131.88;5031975;28;20384;-62
2022/03/04 01:38:07;;;;;;;17.07;8.13;;;;;;;2.36;74.92;94129.41;5014559;28;20209;-62
2022/03/04 01:40:34;;;;;;;16.70;7.43;;;;;;;2.13;74.98;94112.44;5032051;28;20202;-62
2022/03/04 01:42:59;;;;;;;12.90;7.67;;;;;;;1.97;75.33;94101.75;5032453;28;20216;-63
2022/03/04 01:45:24;;;;;;;12.60;8.07;;;;;;;2.08;73.95;94124.47;5032081;28;20170;-63
2022/03/04 01:47:50;;;;;;;13.83;8.10;;;;;;;2.03;73.83;94128.94;5032348;28;20193;-63
2022/03/04 01:50:16;;;;;;;11.20;6.97;;;;;;;1.81;72.84;94144.47;5032283;28;20266;-64
2022/03/04 01:52:41;;;;;;;12.63;7.70;;;;;;;1.61;73.09;94133.13;5014114;28;20183;-63
2022/03/04 01:55:08;;;;;;;12.57;7.17;;;;;;;1.46;73.79;94113.16;5031957;28;20648;-63
2022/03/04 01:57:36;;;;;;;9.63;5.93;;;;;;;1.46;73.01;94121.47;5032076;28;20248;-64
2022/03/04 02:00:05;;;;;;;10.23;6.57;;;;;;;1.41;73.65;94115.94;4997357;28;20275;-64
2022/03/04 02:02:31;;;;;;;10.40;5.70;;;;;;;1.30;73.33;94105.75;5014194;28;20190;-63
2022/03/04 02:04:57;;;;;;;7.63;5.60;;;;;;;1.17;74.56;94097.31;5031652;28;20251;-63
2022/03/04 02:07:22;;;;;;;11.03;6.60;;;;;;;1.15;75.31;94075.78;5031943;28;20282;-62
2022/03/04 02:09:48;;;;;;;10.53;5.87;;;;;;;1.11;75.93;94070.13;5031687;28;20190;-63
2022/03/04 02:12:13;;;;;;;13.73;6.03;;;;;;;1.14;75.23;94085.00;5031989;28;20648;-66
2022/03/04 02:14:39;;;;;;;10.27;6.50;;;;;;;0.90;76.91;94055.56;5031868;28;20534;-65
2022/03/04 02:17:04;;;;;;;10.60;6.47;;;;;;;0.88;77.57;94052.34;5031714;28;20247;-63
2022/03/04 02:19:30;;;;;;;9.00;6.10;;;;;;;0.85;77.10;94053.31;5031480;28;20349;-63
2022/03/04 02:22:01;;;;;;;10.73;5.73;;;;;;;0.98;77.42;94058.44;5031569;28;20660;-65
2022/03/04 02:24:30;;;;;;;11.47;6.20;;;;;;;0.94;76.85;94060.31;5031474;28;20248;-64
2022/03/04 02:26:58;;;;;;;10.67;6.43;;;;;;;0.95;77.05;94069.41;5031492;28;20225;-64
2022/03/04 02:29:24;;;;;;;10.00;6.37;;;;;;;0.95;76.71;94064.41;5031306;28;20712;-63
2022/03/04 02:31:51;;;;;;;10.70;6.47;;;;;;;0.94;76.73;94070.31;5031593;28;20247;-65
2022/03/04 02:34:18;;;;;;;10.57;6.30;;;;;;;0.91;77.10;94067.19;5031450;28;20283;-64
2022/03/04 02:36:43;;;;;;;11.70;6.73;;;;;;;1.03;77.68;94064.78;5031431;28;20224;-63
2022/03/04 02:39:10;;;;;;;7.93;5.70;;;;;;;1.12;77.61;94064.25;5038141;23;20234;-63
2022/03/04 02:41:36;;;;;;;9.57;6.40;;;;;;;1.19;76.89;94079.72;5030614;28;20188;-63
2022/03/04 02:44:04;;;;;;;11.27;6.00;;;;;;;1.24;76.58;94082.75;5031733;28;20210;-63
2022/03/04 02:46:30;;;;;;;10.97;6.33;;;;;;;1.16;77.68;94049.84;5031385;28;20174;-65
2022/03/04 02:48:55;;;;;;;16.77;7.07;;;;;;;1.31;76.66;94076.50;5031710;28;20220;-63
2022/03/04 02:51:20;;;;;;;10.33;6.73;;;;;;;1.32;76.27;94078.91;5031311;28;20191;-65
2022/03/04 02:53:46;;;;;;;12.93;7.17;;;;;;;1.28;77.11;94066.66;5031330;28;20202;-64
2022/03/04 02:56:12;;;;;;;11.33;7.07;;;;;;;1.50;76.12;94075.34;5031466;28;20264;-64
2022/03/04 02:58:38;;;;;;;10.17;7.20;;;;;;;1.42;76.07;94085.00;5031462;28;20568;-64
2022/03/04 03:01:03;;;;;;;11.17;7.17;;;;;;;1.28;76.66;94069.97;5031244;28;20250;-64
2022/03/04 03:03:29;;;;;;;12.40;7.60;;;;;;;1.27;77.37;94063.34;5029941;28;20210;-63
2022/03/04 03:05:54;;;;;;;11.80;7.33;;;;;;;1.40;76.78;94074.25;5031170;28;20266;-64
2022/03/04 03:08:20;;;;;;;11.03;7.40;;;;;;;1.33;77.32;94078.03;5031043;28;20293;-65
2022/03/04 03:10:46;;;;;;;11.13;7.20;;;;;;;1.43;76.88;94081.63;5029927;28;20265;-64
2022/03/04 03:13:11;;;;;;;13.63;7.37;;;;;;;1.36;76.50;94085.34;5034929;28;20217;-63
2022/03/04 03:15:37;;;;;;;10.80;7.13;;;;;;;1.24;76.84;94077.75;5033750;28;20203;-64
2022/03/04 03:18:03;;;;;;;10.00;6.83;;;;;;;1.26;77.35;94061.75;5034987;28;20297;-64
2022/03/04 03:20:28;;;;;;;11.63;7.80;;;;;;;1.14;77.40;94067.47;5034538;28;20233;-63
2022/03/04 03:22:54;;;;;;;12.47;6.90;;;;;;;0.98;77.81;94056.75;5034756;28;21641;-64
2022/03/04 03:25:20;;;;;;;11.50;7.07;;;;;;;0.79;78.29;94043.66;5034653;28;20232;-63
2022/03/04 03:27:45;;;;;;;12.83;7.67;;;;;;;0.83;79.12;94037.59;5034701;28;20187;-63
2022/03/04 03:30:11;;;;;;;10.47;6.67;;;;;;;0.97;78.99;94047.59;5033292;28;20606;-63
2022/03/04 03:32:38;;;;;;;13.30;7.30;;;;;;;0.88;79.14;94048.16;5033095;28;20211;-63
2022/03/04 03:35:04;;;;;;;10.67;7.60;;;;;;;0.73;80.29;94049.81;5034548;28;20697;-62
2022/03/04 03:37:30;;;;;;;12.73;7.30;;;;;;;0.82;80.29;94056.00;5034661;28;20260;-62
2022/03/04 03:39:55;;;;;;;12.83;7.30;;;;;;;0.94;79.98;94067.81;5034793;28;20210;-63
2022/03/04 03:42:21;;;;;;;10.23;6.60;;;;;;;0.72;79.26;94067.44;5034521;28;20201;-63
2022/03/04 03:44:46;;;;;;;11.37;7.43;;;;;;;0.69;80.45;94057.56;5034319;28;20722;-63
2022/03/04 03:47:12;;;;;;;9.40;6.80;;;;;;;0.58;80.31;94060.69;5034338;28;20179;-63
2022/03/04 03:49:38;;;;;;;10.37;7.37;;;;;;;0.33;82.16;94042.13;5034340;28;20260;-65
2022/03/04 03:52:06;;;;;;;10.60;6.50;;;;;;;0.31;82.77;94043.91;5034123;28;20257;-64
2022/03/04 03:54:32;;;;;;;10.53;7.00;;;;;;;0.23;83.34;94046.84;5040143;23;20752;-65
2022/03/04 03:56:57;;;;;;;9.30;6.10;;;;;;;0.23;83.75;94051.03;5033942;28;20244;-63
2022/03/04 03:59:23;;;;;;;13.33;6.80;;;;;;;0.13;83.64;94049.91;5034704;28;20228;-64
2022/03/04 04:01:49;;;;;;;8.30;6.50;;;;;;;0.16;83.70;94062.25;5034336;28;20679;-64
2022/03/04 04:04:15;;;;;;;11.40;6.83;;;;;;;-0.03;84.89;94050.75;5034608;28;20607;-64
2022/03/04 04:06:41;;;;;;;13.33;7.90;;;;;;;0.00;84.76;94060.56;5034312;28;20184;-62
2022/03/04 04:09:08;;;;;;;10.10;6.70;;;;;;;0.03;84.05;94064.59;5034405;28;20241;-63
2022/03/04 04:11:35;;;;;;;10.77;7.53;;;;;;;0.04;84.49;94070.41;5033706;28;20182;-63
2022/03/04 04:14:06;;;;;;;11.50;7.60;;;;;;;0.11;84.25;94071.69;5034142;28;20209;-65
2022/03/04 04:16:32;;;;;;;12.00;7.43;;;;;;;0.12;84.40;94060.81;5033889;28;20259;-64
2022/03/04 04:18:58;;;;;;;10.50;6.47;;;;;;;0.43;83.01;94094.03;5033609;28;20209;-62
2022/03/04 04:21:24;;;;;;;12.13;7.10;;;;;;;0.46;82.55;94095.56;5033910;28;20188;-61
2022/03/04 04:23:51;;;;;;;13.33;7.47;;;;;;;0.47;82.88;94087.16;5033435;28;20205;-64
2022/03/04 04:26:17;;;;;;;10.43;7.27;;;;;;;0.62;82.39;94101.34;5033788;28;20178;-64
2022/03/04 04:28:42;;;;;;;9.17;6.40;;;;;;;0.71;81.41;94113.31;5033861;28;20206;-66
2022/03/04 04:31:08;;;;;;;10.63;6.93;;;;;;;0.74;81.31;94105.66;5033488;28;20179;-63
2022/03/04 04:33:33;;;;;;;11.77;7.27;;;;;;;0.69;80.78;94132.59;5033808;28;20680;-63
2022/03/04 04:36:00;;;;;;;12.03;6.83;;;;;;;0.68;79.90;94136.00;5033365;28;20228;-64
2022/03/04 04:38:26;;;;;;;14.07;6.97;;;;;;;0.62;80.65;94131.34;5032128;28;20293;-63
2022/03/04 04:40:51;;;;;;;12.37;7.23;;;;;;;0.62;79.94;94134.66;5033633;28;20277;-63
2022/03/04 04:43:17;;;;;;;11.33;6.90;;;;;;;0.64;79.98;94137.06;5032090;28;20276;-63
2022/03/04 04:45:43;;;;;;;14.23;7.00;;;;;;;0.67;79.58;94146.88;5033446;28;20261;-66
2022/03/04 04:48:09;;;;;;;14.07;7.57;;;;;;;0.69;79.99;94150.09;5032163;28;20213;-63
2022/03/04 04:50:34;;;;;;;25.67;8.00;;;;;;;0.56;81.25;94116.66;5033432;28;20615;-66
2022/03/04 04:53:00;;;;;;;12.47;7.67;;;;;;;0.62;81.20;94127.16;5033152;28;20241;-63
2022/03/04 04:55:25;;;;;;;12.37;7.57;;;;;;;0.83;80.94;94132.63;5031832;28;20312;-63
2022/03/04 04:57:51;;;;;;;11.67;7.97;;;;;;;1.00;79.29;94157.53;5032972;28;20668;-63
2022/03/04 05:00:17;;;;;;;17.27;8.17;;;;;;;0.85;80.49;94145.84;5032546;28;20182;-67
2022/03/04 05:02:44;;;;;;;16.57;9.97;;;;;;;0.84;80.48;94151.78;5032921;28;20182;-63
2022/03/04 05:05:10;;;;;;;22.03;12.00;;;;;;;0.67;80.40;94144.38;5032921;28;20202;-63
2022/03/04 05:07:36;;;;;;;12.10;8.90;;;;;;;0.85;80.90;94133.34;5032918;28;20186;-62
2022/03/04 05:10:03;;;;;;;15.23;9.10;;;;;;;0.87;81.09;94130.78;5033085;28;20261;-61
2022/03/04 05:12:29;;;;;;;13.57;8.80;;;;;;;0.79;81.61;94126.19;5033049;28;20554;-63
2022/03/04 05:14:55;;;;;;;13.93;8.57;;;;;;;0.78;83.39;94097.91;5031289;28;20202;-62
2022/03/04 05:17:21;;;;;;;11.87;8.27;;;;;;;1.20;80.93;94147.19;5032655;28;20896;-62
2022/03/04 05:19:46;;;;;;;13.10;8.67;;;;;;;1.11;80.77;94137.69;5038729;22;20234;-64
2022/03/04 05:22:12;;;;;;;23.30;13.17;;;;;;;1.01;81.42;94125.81;5031389;28;20171;-63
2022/03/04 05:24:37;;;;;;;15.83;9.60;;;;;;;1.26;80.31;94156.88;5030635;28;20210;-64
2022/03/04 05:27:03;;;;;;;18.10;10.13;;;;;;;1.24;79.98;94153.66;5031152;28;20271;-66
2022/03/04 05:29:29;;;;;;;19.50;9.97;;;;;;;1.30;79.82;94160.81;5032428;28;20281;-65
2022/03/04 05:31:54;;;;;;;17.30;9.53;;;;;;;1.35;79.63;94153.84;5032451;28;20235;-63
2022/03/04 05:34:20;;;;;;;17.20;10.80;;;;;;;1.39;79.37;94157.78;5032145;28;20206;-65
2022/03/04 05:36:45;;;;;;;19.20;9.87;;;;;;;1.47;78.31;94179.88;5031769;28;20212;-63
2022/03/04 05:39:11;;;;;;;15.53;9.43;;;;;;;1.42;78.59;94171.81;5032336;28;20205;-65
2022/03/04 05:41:36;;;;;;;16.17;10.07;;;;;;;1.49;79.07;94166.38;5032265;28;20196;-63
2022/03/04 05:44:03;;;;;;;20.47;10.37;;;;;;;1.33;80.79;94130.59;5031879;28;20202;-63
2022/03/04 05:46:30;;;;;;;25.73;11.07;;;;;;;1.30;81.32;94132.47;5032389;28;20190;-64
2022/03/04 05:48:56;;;;;;;22.10;11.30;;;;;;;1.29;81.28;94129.16;5031417;28;20202;-63
2022/03/04 05:51:22;;;;;;;16.80;10.27;;;;;;;1.41;80.33;94148.50;5032356;28;20178;-64
2022/03/04 05:53:49;;;;;;;20.67;10.87;;;;;;;1.52;79.92;94157.88;5031822;28;20213;-64
2022/03/04 05:56:15;;;;;;;17.23;10.50;;;;;;;1.51;80.47;94148.75;5032455;28;20236;-63
2022/03/04 05:58:41;;;;;;;18.23;11.20;;;;;;;1.70;87.21;94034.06;5030580;28;20646;-63
2022/03/04 06:01:06;;;;;;;21.97;11.27;;;;;;;2.87;100.00;94128.66;5032235;28;20182;-63
2022/03/04 06:03:32;;;;;;;22.40;12.80;;;;;;;2.65;100.00;94265.59;5031450;28;20592;-63
2022/03/04 06:05:58;;;;;;;22.03;12.57;;;;;;;2.37;97.11;94237.13;5030232;28;20186;-63
2022/03/04 06:08:24;;;;;;;21.87;13.07;;;;;;;2.31;96.61;94241.69;5031573;28;20715;-64
2022/03/04 06:10:50;;;;;;;31.47;14.10;;;;;;;2.37;95.11;94256.38;5014259;28;20194;-63
2022/03/04 06:13:16;;;;;;;34.10;14.83;;;;;;;2.27;94.67;94256.13;5031684;28;20240;-66
2022/03/04 06:15:41;;;;;;;28.33;15.63;;;;;;;2.42;93.91;94252.69;5032027;28;20181;-64
2022/03/04 06:18:07;;;;;;;29.17;16.33;;;;;;;2.31;94.52;94242.50;5031498;28;20720;-64
2022/03/04 06:20:33;;;;;;;32.40;17.53;;;;;;;2.35;95.76;94233.09;5030191;28;20633;-63
2022/03/04 06:22:58;;;;;;;34.03;18.97;;;;;;;2.41;95.41;94220.19;5031587;28;20700;-63
2022/03/04 06:25:32;;;;;;;31.80;19.07;;;;;;;2.47;94.54;94229.84;5031422;28;20213;-62
2022/03/04 06:28:01;;;;;;;35.63;19.03;;;;;;;2.44;94.33;94242.59;5031025;28;20205;-63
2022/03/04 06:30:38;;;;;;;50.03;21.63;;;;;;;2.31;94.77;94231.66;5031155;28;20264;-63
2022/03/04 06:35:51;;;;;;;38.97;21.33;;;;;;;1.57;97.23;94168.44;5031290;28;20868;-65
2022/03/04 06:38:17;;;;;;;42.60;22.30;;;;;;;1.55;98.65;94150.19;5029329;28;20233;-63
2022/03/04 06:40:44;;;;;;;45.53;22.27;;;;;;;2.01;96.77;94198.41;5030734;28;20178;-63
2022/03/04 06:43:10;;;;;;;38.77;21.77;;;;;;;2.24;96.46;94200.34;5031532;28;20202;-63
2022/03/04 06:45:37;;;;;;;36.37;21.30;;;;;;;2.13;96.45;94195.97;5030107;28;20615;-64
2022/03/04 06:48:03;;;;;;;42.23;21.47;;;;;;;1.95;96.69;94204.59;5034704;28;20225;-64
2022/03/04 06:50:29;;;;;;;40.17;20.83;;;;;;;2.21;96.05;94218.88;5035793;28;20564;-64
2022/03/04 06:52:55;;;;;;;49.07;24.20;;;;;;;2.24;96.05;94220.41;5035264;28;20209;-63
2022/03/04 06:55:21;;;;;;;39.90;23.37;;;;;;;2.32;95.27;94228.28;5034036;28;20663;-64
2022/03/04 06:57:50;;;;;;;40.60;22.60;;;;;;;2.52;95.24;94245.44;5034951;28;20260;-62
2022/03/04 07:00:15;;;;;;;42.83;20.77;;;;;;;2.49;94.22;94251.44;5034060;28;20201;-63
2022/03/04 07:02:41;;;;;;;39.87;20.33;;;;;;;2.68;94.31;94261.19;5033980;28;20190;-63
2022/03/04 07:05:08;;;;;;;42.03;21.33;;;;;;;2.69;93.36;94275.31;5033185;28;20300;-63
2022/03/04 07:07:35;;;;;;;39.40;21.90;;;;;;;2.66;92.81;94275.53;5033768;28;20182;-63
2022/03/04 07:10:01;;;;;;;37.30;22.57;;;;;;;2.46;93.77;94270.91;5035344;28;20236;-63
2022/03/04 07:12:27;;;;;;;37.33;20.50;;;;;;;2.56;93.02;94269.44;5035027;28;20627;-64
2022/03/04 07:14:53;;;;;;;40.77;22.40;;;;;;;2.66;92.48;94287.25;5033647;28;20206;-63
2022/03/04 07:17:18;;;;;;;40.73;22.37;;;;;;;2.71;92.01;94291.09;5033666;28;20210;-62
2022/03/04 07:19:51;;;;;;;34.30;20.70;;;;;;;2.48;91.45;94289.94;5033675;28;20222;-63
2022/03/04 07:22:16;;;;;;;30.23;18.53;;;;;;;2.48;91.39;94289.16;5034970;28;20337;-64
2022/03/04 07:24:42;;;;;;;35.57;19.27;;;;;;;2.59;91.68;94284.31;5035086;28;20677;-64
2022/03/04 07:27:07;;;;;;;34.27;18.93;;;;;;;2.90;89.82;94319.22;5034495;28;20189;-63
2022/03/04 07:29:33;;;;;;;33.80;18.23;;;;;;;3.10;90.27;94325.53;5033099;28;20282;-63
2022/03/04 07:31:58;;;;;;;30.87;17.87;;;;;;;2.88;91.03;94298.41;5031249;28;20692;-62
2022/03/04 07:34:25;;;;;;;39.03;19.13;;;;;;;3.01;90.28;94311.81;5033445;28;20210;-64
2022/03/04 07:36:52;;;;;;;28.23;17.53;;;;;;;2.53;92.23;94280.47;5034408;28;20289;-63
2022/03/04 07:39:18;;;;;;;31.57;17.77;;;;;;;2.92;90.25;94314.09;5034319;28;20202;-63
2022/03/04 07:41:44;;;;;;;30.83;18.97;;;;;;;2.93;91.09;94301.44;5034469;28;20179;-63
2022/03/04 07:44:11;;;;;;;31.73;17.77;;;;;;;2.98;90.13;94316.22;5034173;28;20206;-63
2022/03/04 07:46:37;;;;;;;32.50;17.70;;;;;;;3.03;91.19;94296.69;5034244;28;20187;-63
2022/03/04 07:49:04;;;;;;;31.40;17.50;;;;;;;3.28;89.69;94317.66;5032953;28;20206;-64
2022/03/04 07:51:30;;;;;;;29.03;17.53;;;;;;;3.36;90.61;94300.41;5033180;28;20186;-64
2022/03/04 07:53:56;;;;;;;29.90;18.53;;;;;;;3.58;88.27;94334.22;5034707;28;20194;-62
2022/03/04 07:56:23;;;;;;;35.23;18.57;;;;;;;3.40;89.48;94319.41;5033116;28;20217;-62
2022/03/04 07:58:49;;;;;;;30.53;18.63;;;;;;;3.48;90.10;94300.53;5032969;28;20684;-63
2022/03/04 08:01:15;;;;;;;31.37;18.60;;;;;;;3.72;87.40;94355.06;5034314;28;20198;-63
2022/03/04 08:03:42;;;;;;;34.63;18.37;;;;;;;3.61;86.21;94369.22;5032251;28;20210;-63
2022/03/04 08:06:08;;;;;;;27.73;17.67;;;;;;;3.55;88.25;94319.34;5031907;28;20199;-62
2022/03/04 08:08:34;;;;;;;35.97;19.20;;;;;;;3.52;87.72;94325.38;5033999;28;20206;-62
2022/03/04 08:11:00;;;;;;;33.77;18.17;;;;;;;3.51;89.00;94310.41;5034463;28;20198;-62
2022/03/04 08:13:26;;;;;;;30.33;17.57;;;;;;;3.73;87.78;94318.19;5033986;28;20238;-62
2022/03/04 08:15:51;;;;;;;30.90;17.70;;;;;;;3.82;86.25;94356.09;5034263;28;20221;-62
2022/03/04 08:18:17;;;;;;;31.67;16.03;;;;;;;3.63;86.96;94333.06;5033756;28;20216;-62
2022/03/04 08:20:43;;;;;;;27.57;16.80;;;;;;;3.82;85.86;94355.28;5034069;28;20197;-62
2022/03/04 08:23:08;;;;;;;27.93;16.17;;;;;;;3.98;85.54;94358.47;5033902;28;20276;-64
2022/03/04 08:25:33;;;;;;;28.87;15.37;;;;;;;4.13;85.42;94363.31;5034012;28;20667;-62
2022/03/04 08:27:59;;;;;;;28.83;15.90;;;;;;;4.16;84.40;94383.22;5033403;28;20195;-62
2022/03/04 08:30:25;;;;;;;26.63;14.70;;;;;;;4.37;84.01;94386.06;5013823;28;20715;-64
2022/03/04 08:32:50;;;;;;;23.13;15.40;;;;;;;4.24;83.46;94398.63;5033557;28;20257;-62
2022/03/04 08:35:16;;;;;;;27.90;14.90;;;;;;;4.39;85.16;94363.31;5034026;28;20703;-62
2022/03/04 08:37:42;;;;;;;25.80;15.13;;;;;;;4.55;83.54;94399.16;5033660;28;20264;-62
2022/03/04 08:40:09;;;;;;;30.60;16.33;;;;;;;4.52;84.72;94362.44;5033711;28;20225;-61
2022/03/04 08:42:35;;;;;;;31.87;17.23;;;;;;;4.61;84.69;94368.56;5033267;28;20183;-62
2022/03/04 08:45:01;;;;;;;27.60;16.53;;;;;;;4.81;82.44;94419.19;5033505;28;20273;-62
2022/03/04 08:47:26;;;;;;;32.40;16.70;;;;;;;4.94;78.96;94437.63;5033342;28;20278;-62
2022/03/04 08:49:52;;;;;;;38.57;17.83;;;;;;;4.83;78.93;94429.97;5033234;28;20212;-61
2022/03/04 08:52:18;;;;;;;31.87;17.77;;;;;;;4.74;79.11;94418.00;5033255;28;20191;-60
2022/03/04 08:54:43;;;;;;;29.17;17.57;;;;;;;5.06;74.38;94406.59;5033178;28;20208;-62
2022/03/04 08:57:09;;;;;;;28.53;17.13;;;;;;;5.13;71.90;94436.41;5032879;28;20676;-64
2022/03/04 08:59:35;;;;;;;29.80;17.30;;;;;;;5.30;74.61;94363.81;5032870;28;20582;-62
2022/03/04 09:02:00;;;;;;;30.40;17.53;;;;;;;5.71;72.23;94418.91;5032950;28;20618;-62
2022/03/04 09:04:26;;;;;;;32.43;18.30;;;;;;;5.87;68.80;94475.78;5032170;28;20650;-62
2022/03/04 09:06:51;;;;;;;34.43;18.63;;;;;;;5.72;69.18;94460.84;5031493;28;20188;-63
2022/03/04 09:09:17;;;;;;;30.37;17.73;;;;;;;5.89;66.13;94506.75;5031148;28;20202;-62
2022/03/04 09:11:43;;;;;;;29.83;17.43;;;;;;;5.91;64.97;94514.22;5029173;28;20184;-62
2022/03/04 09:14:09;;;;;;;35.60;18.20;;;;;;;5.86;65.71;94484.25;5031906;28;20681;-63
2022/03/04 09:16:35;;;;;;;30.53;18.10;;;;;;;5.90;65.39;94472.22;5032921;28;20630;-61
2022/03/04 09:19:00;;;;;;;28.00;17.60;;;;;;;5.86;66.47;94455.69;5032851;28;20197;-65
2022/03/04 09:21:26;;;;;;;28.53;16.90;;;;;;;6.36;66.03;94463.03;5033208;28;20197;-63
2022/03/04 09:23:52;;;;;;;34.60;18.93;;;;;;;6.55;63.68;94513.00;5032428;28;20192;-63
2022/03/04 09:26:17;;;;;;;33.23;17.57;;;;;;;6.83;63.97;94507.59;5032962;28;20393;-63
2022/03/04 09:28:43;;;;;;;36.47;18.03;;;;;;;6.97;64.69;94474.53;5031157;28;20284;-63
2022/03/04 09:31:08;;;;;;;32.07;16.83;;;;;;;7.21;61.87;94535.13;5033021;28;20189;-62
2022/03/04 09:33:34;;;;;;;32.33;16.90;;;;;;;7.31;60.51;94553.78;5032396;28;21130;-62
2022/03/04 09:36:02;;;;;;;23.70;16.17;;;;;;;7.58;57.02;94582.88;5030908;28;20201;-61
2022/03/04 09:38:28;;;;;;;28.33;17.17;;;;;;;7.39;56.65;94574.25;5032127;28;20205;-62
2022/03/04 09:40:53;;;;;;;31.10;16.50;;;;;;;7.46;58.80;94527.34;5032675;28;20209;-61
2022/03/04 09:43:19;;;;;;;31.17;16.07;;;;;;;7.88;58.09;94513.97;5032208;28;20715;-62
2022/03/04 09:45:46;;;;;;;27.63;15.83;;;;;;;8.43;55.80;94568.78;5031850;28;20190;-62
2022/03/04 09:48:12;;;;;;;29.17;15.13;;;;;;;8.77;54.37;94570.28;5028468;28;20285;-62
2022/03/04 09:50:38;;;;;;;28.87;15.63;;;;;;;8.76;53.19;94523.09;5029295;28;20438;-62
2022/03/04 09:53:08;;;;;;;29.27;14.97;;;;;;;9.13;51.90;94548.81;5032240;28;20236;-62
2022/03/04 09:55:34;;;;;;;29.00;17.43;;;;;;;8.91;50.75;94559.06;5032573;28;20193;-63
2022/03/04 09:57:59;;;;;;;28.23;16.30;;;;;;;9.24;50.24;94543.69;5031826;28;20632;-64
2022/03/04 10:00:25;;;;;;;27.33;16.57;;;;;;;9.43;51.21;94499.84;5031918;28;20645;-64
2022/03/04 10:02:51;;;;;;;31.83;16.67;;;;;;;9.52;49.85;94519.38;5030522;28;20274;-63
2022/03/04 10:05:17;;;;;;;31.20;16.93;;;;;;;9.77;50.62;94468.19;5031753;28;20190;-63
2022/03/04 10:07:46;;;;;;;27.90;16.57;;;;;;;9.92;49.75;94490.53;5039367;22;20283;-64
2022/03/04 10:10:15;;;;;;;27.30;17.50;;;;;;;10.34;48.63;94521.69;5031780;28;20178;-63
2022/03/04 10:12:50;;;;;;;31.20;18.20;;;;;;;10.40;48.12;94505.91;5032226;28;20182;-64
2022/03/04 10:15:16;;;;;;;28.03;18.03;;;;;;;10.21;46.17;94528.72;5030728;28;20178;-62
2022/03/04 10:17:56;;;;;;;28.97;18.63;;;;;;;9.97;47.22;94488.44;5013576;28;20236;-63
2022/03/04 10:20:31;;;;;;;29.70;17.03;;;;;;;9.91;48.35;94453.41;5032013;28;20170;-62
2022/03/04 10:23:19;;;;;;;27.93;17.83;;;;;;;10.36;47.53;94466.47;5031694;28;20284;-64
2022/03/04 10:25:48;;;;;;;33.57;17.93;;;;;;;10.40;46.60;94482.22;5031774;28;20171;-62
2022/03/04 10:28:15;;;;;;;28.87;17.53;;;;;;;10.74;47.42;94458.00;5032220;28;20198;-61
2022/03/04 10:30:46;;;;;;;34.37;16.77;;;;;;;10.28;47.42;94451.06;5031481;28;20224;-62
2022/03/04 10:33:24;;;;;;;31.13;18.10;;;;;;;11.05;47.46;94446.69;5013892;28;20206;-63
2022/03/04 10:36:25;;;;;;;30.80;17.50;;;;;;;11.61;44.35;94511.09;5031621;28;20166;-62
2022/03/04 10:39:08;;;;;;;26.37;17.03;;;;;;;11.63;44.93;94482.97;4969615;28;20220;-62
2022/03/04 10:41:35;;;;;;;27.30;17.30;;;;;;;11.75;45.13;94461.50;5026252;28;20648;-64
2022/03/04 10:44:23;;;;;;;29.73;17.60;;;;;;;11.78;44.59;94472.19;5029436;28;20194;-64
2022/03/04 10:46:57;;;;;;;28.53;17.83;;;;;;;12.13;43.11;94489.31;5031661;28;20261;-62
2022/03/04 10:49:27;;;;;;;26.40;18.00;;;;;;;12.28;44.58;94452.16;5013728;28;20280;-63
2022/03/04 10:52:08;;;;;;;24.70;16.40;;;;;;;11.96;42.11;94496.91;5015385;28;20632;-60
2022/03/04 10:54:34;;;;;;;28.30;17.17;;;;;;;11.33;43.30;94455.97;5038099;23;20221;-59
2022/03/04 10:57:03;;;;;;;28.53;17.43;;;;;;;11.63;42.64;94468.50;5031276;28;20206;-59
2022/03/04 10:59:29;;;;;;;26.70;16.47;;;;;;;11.74;42.52;94455.59;5031135;28;20206;-59
2022/03/04 11:01:55;;;;;;;29.73;16.63;;;;;;;12.19;43.52;94432.66;5031373;28;20615;-59
2022/03/04 11:04:22;;;;;;;34.23;17.97;;;;;;;12.78;42.70;94444.81;5031241;28;20290;-59
2022/03/04 11:06:49;;;;;;;24.50;17.53;;;;;;;12.84;41.41;94467.16;5031181;28;20672;-59
2022/03/04 11:09:24;;;;;;;25.57;15.37;;;;;;;12.72;40.13;94504.06;5031924;28;20581;-60
2022/03/04 11:11:52;;;;;;;26.90;15.73;;;;;;;12.79;40.17;94483.84;5030860;28;20710;-60
2022/03/04 11:14:20;;;;;;;30.23;15.33;;;;;;;12.77;39.63;94489.09;5030342;28;20245;-59
2022/03/04 11:16:48;;;;;;;27.07;16.27;;;;;;;12.14;39.35;94482.47;5028711;28;20263;-59
2022/03/04 11:19:15;;;;;;;22.43;14.60;;;;;;;12.15;39.35;94466.22;5035784;23;20222;-59
2022/03/04 11:21:41;;;;;;;24.37;15.27;;;;;;;12.30;40.98;94414.59;5031293;28;20660;-61
2022/03/04 11:24:07;;;;;;;23.87;15.73;;;;;;;12.84;40.71;94431.47;5031358;28;20229;-59
2022/03/04 11:26:35;;;;;;;30.23;16.10;;;;;;;12.66;39.87;94443.44;5030125;28;20237;-60
2022/03/04 11:29:03;;;;;;;29.60;15.57;;;;;;;12.61;38.23;94481.31;5031310;28;20229;-59